• Join FlightAware (Why Join?)
  • Login
  • US Flag 
01:05AM EST


 

Airport Tracker/Info


-or-


 

Live Flight TrackerFlight Track Log ✈ N500TC ✈ 18-Aug-2013 ✈ KFLO - KFAY

Flight Track Log - Related Links

Times and Time Zones

All times are in EDT time to prevent confusion due to time zone crossing. See the N500TC flight status page for this flight to view local times or setup timezone preferences in your user account.

Time Position Orientation Groundspeed Altitude Reporting Facility
EDT Latitude Longitude Course Direction KTS MPH feet Rate Location/Type
05:00PM 34.3727 -79.5298 41° Northeast  Level Estimated
05:01PM 34.3994 -79.5020 41° Northeast  Level Estimated
05:02PM 34.4262 -79.4742 41° Northeast  Level Estimated
05:03PM 34.4529 -79.4463 41° Northeast  Level Estimated
05:04PM 34.4796 -79.4184 41° Northeast  Level Estimated
05:05PM 34.5063 -79.3906 41° Northeast  Level Estimated
05:06PM 34.5330 -79.3627 41° Northeast  Level Estimated
05:07PM 34.5597 -79.3348 41° Northeast  Level Estimated
05:08PM 34.5864 -79.3068 41° Northeast  Level Estimated
05:09PM 34.6131 -79.2789 41° Northeast  Level Estimated
05:10PM 34.6391 -79.2517 41° Northeast  Level Estimated
05:11PM 34.6651 -79.2244 41° Northeast  Level Estimated
05:12PM 34.6911 -79.1971 41° Northeast  Level Estimated
05:13PM 34.7170 -79.1698 41° Northeast  Level Estimated
05:14PM 34.7430 -79.1425 41° Northeast  Level Estimated
05:15PM 34.7690 -79.1152 41° Northeast  Level Estimated
05:16PM 34.7949 -79.0878 41° Northeast  Level Estimated
05:17PM 34.8209 -79.0605 41° Northeast  Level Estimated
05:18PM 34.8468 -79.0331 41° Northeast  Level Estimated
05:19PM 34.8728 -79.0057 41° Northeast  Level Estimated
05:20PM 34.8987 -78.9783 41° Northeast  Level Estimated
05:21PM 34.9246 -78.9508 41° Northeast  Level Estimated
05:22PM 34.9506 -78.9234 41° Northeast  Level Estimated
05:23PM 34.9765 -78.8959 41° Northeast  Level Estimated
05:24PM 34.9912 -78.8803 41° Northeast  Level Estimated
05:25PM 34.9912 -78.8803 39° Northeast  Level Estimated
05:26PM 34.9912 -78.8803 39° Northeast  Level Estimated
05:27PM 34.9912 -78.8803 39° Northeast  Level Estimated
05:28PM 34.9912 -78.8803 39° Northeast  Level Estimated